createdAt,value
2017-12-16T00:02:12.332Z,3.77
2017-12-16T00:04:39.599Z,5.10
2017-12-16T00:07:06.849Z,3.87
2017-12-16T00:09:34.210Z,3.80
2017-12-16T00:12:01.457Z,4.80
2017-12-16T00:14:28.781Z,4.13
2017-12-16T00:16:56.025Z,3.83
2017-12-16T00:19:23.283Z,4.30
2017-12-16T00:21:50.552Z,3.97
2017-12-16T00:24:17.810Z,3.87
2017-12-16T00:26:45.179Z,3.73
2017-12-16T00:29:13.760Z,4.17
2017-12-16T00:31:41.022Z,4.10
2017-12-16T00:34:08.270Z,4.33
2017-12-16T00:36:35.541Z,3.97
2017-12-16T00:39:02.862Z,4.07
2017-12-16T00:41:30.128Z,3.80
2017-12-16T00:43:57.376Z,4.10
2017-12-16T00:46:24.640Z,4.37
2017-12-16T00:48:51.889Z,3.60
2017-12-16T00:51:19.249Z,4.07
2017-12-16T00:53:46.497Z,3.43
2017-12-16T00:56:13.797Z,3.80
2017-12-16T00:58:41.045Z,5.07
2017-12-16T01:01:08.312Z,5.10
2017-12-16T01:03:35.585Z,3.87
2017-12-16T01:06:02.871Z,4.10
2017-12-16T01:08:30.133Z,4.13
2017-12-16T01:10:57.395Z,4.57
2017-12-16T01:13:24.664Z,5.90
2017-12-16T01:15:51.915Z,5.43
2017-12-16T01:18:19.187Z,6.03
2017-12-16T01:20:46.501Z,6.17
2017-12-16T01:23:13.769Z,6.47
2017-12-16T01:25:41.024Z,8.80
2017-12-16T01:28:08.297Z,6.37
2017-12-16T01:30:35.606Z,6.53
2017-12-16T01:33:02.855Z,6.20
2017-12-16T01:35:35.945Z,5.90
2017-12-16T01:38:08.946Z,6.90
2017-12-16T01:40:36.208Z,5.70
2017-12-16T01:43:03.467Z,6.77
2017-12-16T01:45:30.733Z,8.13
2017-12-16T01:47:58.061Z,7.37
2017-12-16T01:50:25.319Z,7.20
2017-12-16T01:52:52.585Z,8.47
2017-12-16T01:55:19.851Z,8.90
2017-12-16T01:57:47.106Z,9.00
2017-12-16T02:00:14.357Z,9.40
2017-12-16T02:02:41.646Z,10.20
2017-12-16T02:05:08.901Z,12.80
2017-12-16T02:07:36.181Z,9.23
2017-12-16T02:10:03.453Z,11.20
2017-12-16T02:12:30.729Z,10.53
2017-12-16T02:14:57.988Z,10.33
2017-12-16T02:17:25.268Z,10.57
2017-12-16T02:19:52.554Z,8.73
2017-12-16T02:22:19.824Z,8.20
2017-12-16T02:24:47.078Z,8.60
2017-12-16T02:27:14.416Z,8.90
2017-12-16T02:29:41.774Z,9.13
2017-12-16T02:32:09.045Z,9.37
2017-12-16T02:34:36.303Z,14.73
2017-12-16T02:37:03.635Z,9.43
2017-12-16T02:39:30.893Z,9.50
2017-12-16T02:41:58.200Z,9.00
2017-12-16T02:44:25.508Z,8.80
2017-12-16T02:46:52.852Z,9.40
2017-12-16T02:49:20.209Z,7.90
2017-12-16T02:51:47.464Z,8.60
2017-12-16T02:54:14.808Z,10.30
2017-12-16T02:56:42.072Z,7.90
2017-12-16T02:59:09.352Z,7.93
2017-12-16T03:01:36.601Z,7.27
2017-12-16T03:04:03.911Z,7.83
2017-12-16T03:06:31.156Z,7.80
2017-12-16T03:08:58.436Z,7.30
2017-12-16T03:11:25.686Z,11.10
2017-12-16T03:13:53.045Z,8.90
2017-12-16T03:16:20.305Z,8.10
2017-12-16T03:18:47.582Z,8.63
2017-12-16T03:21:14.832Z,8.73
2017-12-16T03:23:42.092Z,9.97
2017-12-16T03:26:09.365Z,9.40
2017-12-16T03:28:36.629Z,12.10
2017-12-16T03:31:03.902Z,9.97
2017-12-16T03:33:31.159Z,10.63
2017-12-16T03:35:58.441Z,10.40
2017-12-16T03:38:25.700Z,11.33
2017-12-16T03:40:52.981Z,10.10
2017-12-16T03:43:20.246Z,11.67
2017-12-16T03:45:47.539Z,11.13
2017-12-16T03:48:14.804Z,10.23
2017-12-16T03:50:42.077Z,11.07
2017-12-16T03:53:09.333Z,11.63
2017-12-16T03:55:36.621Z,10.43
2017-12-16T03:58:03.880Z,10.50
2017-12-16T04:00:31.163Z,11.17
2017-12-16T04:02:58.420Z,10.83
2017-12-16T04:05:25.736Z,14.47
2017-12-16T04:07:53.002Z,10.60
2017-12-16T04:10:20.264Z,9.20
2017-12-16T04:12:47.635Z,11.20
2017-12-16T04:15:14.903Z,11.27
2017-12-16T04:17:42.169Z,9.90
2017-12-16T04:20:09.433Z,11.43
2017-12-16T04:22:36.761Z,10.90
2017-12-16T04:25:04.029Z,11.03
2017-12-16T04:27:31.304Z,11.33
2017-12-16T04:29:58.564Z,13.97
2017-12-16T04:32:25.849Z,13.97
2017-12-16T04:34:53.111Z,13.90
2017-12-16T04:37:20.390Z,14.53
2017-12-16T04:39:47.648Z,15.30
2017-12-16T04:42:14.989Z,17.50
2017-12-16T04:44:42.252Z,15.00
2017-12-16T04:47:09.537Z,15.33
2017-12-16T04:49:36.849Z,15.00
2017-12-16T04:52:04.130Z,16.07
2017-12-16T04:54:31.397Z,17.40
2017-12-16T04:56:58.656Z,16.40
2017-12-16T04:59:25.935Z,17.43
2017-12-16T05:01:53.196Z,17.40
2017-12-16T05:04:20.571Z,17.43
2017-12-16T05:06:47.928Z,19.67
2017-12-16T05:09:15.209Z,16.10
2017-12-16T05:11:42.472Z,17.13
2017-12-16T05:14:09.748Z,19.20
2017-12-16T05:16:37.011Z,16.03
2017-12-16T05:19:04.298Z,16.30
2017-12-16T05:21:31.653Z,18.03
2017-12-16T05:23:58.934Z,19.03
2017-12-16T05:26:26.256Z,19.90
2017-12-16T05:28:53.540Z,19.70
2017-12-16T05:31:20.868Z,21.50
2017-12-16T05:33:48.151Z,19.60
2017-12-16T05:36:15.413Z,18.03
2017-12-16T05:38:42.688Z,26.53
2017-12-16T05:41:09.948Z,26.57
2017-12-16T05:43:37.270Z,20.23
2017-12-16T05:46:04.529Z,21.23
2017-12-16T05:48:31.789Z,19.17
2017-12-16T05:50:59.064Z,22.97
2017-12-16T05:53:26.328Z,19.30
2017-12-16T05:55:53.610Z,18.30
2017-12-16T05:58:20.878Z,18.83
2017-12-16T06:00:48.148Z,20.03
2017-12-16T06:03:15.463Z,20.87
2017-12-16T06:05:42.809Z,18.70
2017-12-16T06:08:10.089Z,18.23
2017-12-16T06:10:37.356Z,20.90
2017-12-16T06:13:04.615Z,22.10
2017-12-16T06:15:31.896Z,25.93
2017-12-16T06:17:59.194Z,23.90
2017-12-16T06:20:26.449Z,21.37
2017-12-16T06:22:53.713Z,20.20
2017-12-16T06:25:21.056Z,18.00
2017-12-16T06:27:48.413Z,23.50
2017-12-16T06:30:15.704Z,25.13
2017-12-16T06:32:43.106Z,20.90
2017-12-16T06:35:10.393Z,25.63
2017-12-16T06:37:37.685Z,25.00
2017-12-16T06:40:04.950Z,29.80
2017-12-16T06:42:32.241Z,22.40
2017-12-16T06:44:59.617Z,21.70
2017-12-16T06:47:26.909Z,27.77
2017-12-16T06:49:54.193Z,20.67
2017-12-16T06:52:21.452Z,20.87
2017-12-16T06:54:48.814Z,20.77
2017-12-16T06:57:16.124Z,20.83
2017-12-16T06:59:43.380Z,19.50
2017-12-16T07:02:10.676Z,21.10
2017-12-16T07:04:37.976Z,20.30
2017-12-16T07:07:05.231Z,22.80
2017-12-16T07:09:32.506Z,20.43
2017-12-16T07:11:59.784Z,23.20
2017-12-16T07:14:27.149Z,21.43
2017-12-16T07:16:54.431Z,20.67
2017-12-16T07:19:21.961Z,23.80
2017-12-16T07:21:49.254Z,19.93
2017-12-16T07:24:16.516Z,21.53
2017-12-16T07:26:43.784Z,24.97
2017-12-16T07:29:11.072Z,22.90
2017-12-16T07:31:38.342Z,23.23
2017-12-16T07:34:05.625Z,21.67
2017-12-16T07:36:32.912Z,23.30
2017-12-16T07:39:00.183Z,24.27
2017-12-16T07:41:27.542Z,25.00
2017-12-16T07:43:54.760Z,23.80
2017-12-16T07:46:22.056Z,22.53
2017-12-16T07:48:49.340Z,24.80
2017-12-16T07:51:16.597Z,23.27
2017-12-16T07:53:43.929Z,21.80
2017-12-16T07:56:11.267Z,23.63
2017-12-16T07:58:38.710Z,21.70
2017-12-16T08:01:05.921Z,23.13
2017-12-16T08:03:33.224Z,24.00
2017-12-16T08:06:00.485Z,23.03
2017-12-16T08:08:27.840Z,24.83
2017-12-16T08:10:55.144Z,25.00
2017-12-16T08:13:22.504Z,22.90
2017-12-16T08:15:49.801Z,24.17
2017-12-16T08:18:17.090Z,23.77
2017-12-16T08:20:44.351Z,23.43
2017-12-16T08:23:11.637Z,26.50
2017-12-16T08:25:38.952Z,26.57
2017-12-16T08:28:06.247Z,23.90
2017-12-16T08:30:33.499Z,25.47
2017-12-16T08:33:00.769Z,24.00
2017-12-16T08:35:28.044Z,25.27
2017-12-16T08:37:55.396Z,23.77
2017-12-16T08:40:22.672Z,25.50
2017-12-16T08:42:49.941Z,27.57
2017-12-16T08:45:17.221Z,23.73
2017-12-16T08:47:44.480Z,25.70
2017-12-16T08:50:11.762Z,26.70
2017-12-16T08:52:39.034Z,38.43
2017-12-16T08:55:06.374Z,29.70
2017-12-16T08:57:33.648Z,24.47
2017-12-16T09:00:00.915Z,26.07
2017-12-16T09:02:28.197Z,27.17
2017-12-16T09:04:55.460Z,25.77
2017-12-16T09:07:22.748Z,25.83
2017-12-16T09:09:50.009Z,24.97
2017-12-16T09:12:17.296Z,29.60
2017-12-16T09:14:44.560Z,29.07
2017-12-16T09:17:11.835Z,25.37
2017-12-16T09:19:39.100Z,25.87
2017-12-16T09:22:06.381Z,31.90
2017-12-16T09:24:33.640Z,28.57
2017-12-16T09:27:00.954Z,32.37
2017-12-16T09:29:28.216Z,29.57
2017-12-16T09:31:55.476Z,32.43
2017-12-16T09:34:22.760Z,32.40
2017-12-16T09:36:50.095Z,32.50
2017-12-16T09:39:17.363Z,30.43
2017-12-16T09:41:44.642Z,34.15
2017-12-16T09:44:11.923Z,34.80
2017-12-16T09:46:39.199Z,34.90
2017-12-16T09:49:06.473Z,32.80
2017-12-16T09:51:33.735Z,31.73
2017-12-16T09:54:01.014Z,33.40
2017-12-16T09:56:28.276Z,32.63
2017-12-16T09:58:55.556Z,30.50
2017-12-16T10:01:22.812Z,33.10
2017-12-16T10:03:50.099Z,29.07
2017-12-16T10:06:17.404Z,26.80
2017-12-16T10:08:44.799Z,35.00
2017-12-16T10:11:12.060Z,28.50
2017-12-16T10:13:39.328Z,28.10
2017-12-16T10:16:06.656Z,30.13
2017-12-16T10:18:33.917Z,28.80
2017-12-16T10:21:01.195Z,25.70
2017-12-16T10:23:28.460Z,26.57
2017-12-16T10:25:55.735Z,26.17
2017-12-16T10:28:22.996Z,27.00
2017-12-16T10:30:50.272Z,26.33
2017-12-16T10:33:17.536Z,27.00
2017-12-16T10:35:44.892Z,23.20
2017-12-16T10:38:12.162Z,24.50
2017-12-16T10:40:39.443Z,24.00
2017-12-16T10:43:06.752Z,22.60
2017-12-16T10:45:34.045Z,26.30
2017-12-16T10:48:01.305Z,23.60
2017-12-16T10:50:28.581Z,26.77
2017-12-16T10:52:55.844Z,26.40
2017-12-16T10:55:23.104Z,22.17
2017-12-16T10:57:50.389Z,19.30
2017-12-16T11:00:17.652Z,24.93
2017-12-16T11:02:44.956Z,25.30
2017-12-16T11:05:12.189Z,26.23
2017-12-16T11:07:39.465Z,23.47
2017-12-16T11:10:06.731Z,21.10
2017-12-16T11:12:34.004Z,24.23
2017-12-16T11:15:01.264Z,25.03
2017-12-16T11:17:28.546Z,25.57
2017-12-16T11:19:55.810Z,24.80
2017-12-16T11:22:23.090Z,22.47
2017-12-16T11:24:50.351Z,21.87
2017-12-16T11:27:17.624Z,22.03
2017-12-16T11:29:44.890Z,21.70
2017-12-16T11:32:12.225Z,20.17
2017-12-16T11:34:39.490Z,18.30
2017-12-16T11:37:06.766Z,18.93
2017-12-16T11:39:34.027Z,20.73
2017-12-16T11:42:01.345Z,18.07
2017-12-16T11:44:28.613Z,18.33
2017-12-16T11:46:55.959Z,17.70
2017-12-16T11:49:23.221Z,15.53
2017-12-16T11:51:50.524Z,19.63
2017-12-16T11:54:17.820Z,14.47
2017-12-16T11:56:45.077Z,16.57
2017-12-16T11:59:12.359Z,18.57
2017-12-16T12:01:39.616Z,17.63
2017-12-16T12:04:06.888Z,17.30
2017-12-16T12:06:34.144Z,16.73
2017-12-16T12:09:01.436Z,19.90
2017-12-16T12:11:28.693Z,19.00
2017-12-16T12:13:56.052Z,20.00
2017-12-16T12:16:23.349Z,19.50
2017-12-16T12:18:50.640Z,20.30
2017-12-16T12:21:17.914Z,18.57
2017-12-16T12:23:45.189Z,19.50
2017-12-16T12:26:12.455Z,19.10
2017-12-16T12:28:39.732Z,19.20
2017-12-16T12:31:06.992Z,20.57
2017-12-16T12:33:34.273Z,19.97
2017-12-16T12:36:01.533Z,18.30
2017-12-16T12:38:28.849Z,19.97
2017-12-16T12:40:56.116Z,19.20
2017-12-16T12:43:23.377Z,18.00
2017-12-16T12:45:50.664Z,18.40
2017-12-16T12:48:17.921Z,19.40
2017-12-16T12:50:45.201Z,18.37
2017-12-16T12:53:12.470Z,18.97
2017-12-16T12:55:39.752Z,18.23
2017-12-16T12:58:07.012Z,18.70
2017-12-16T13:00:34.286Z,16.30
2017-12-16T13:03:01.547Z,16.17
2017-12-16T13:05:28.821Z,16.87
2017-12-16T13:07:56.136Z,15.57
2017-12-16T13:10:23.424Z,16.13
2017-12-16T13:12:50.680Z,14.07
2017-12-16T13:15:18.001Z,16.00
2017-12-16T13:17:45.262Z,16.83
2017-12-16T13:20:12.545Z,19.33
2017-12-16T13:22:39.809Z,17.40
2017-12-16T13:25:07.089Z,15.63
2017-12-16T13:27:34.358Z,15.90
2017-12-16T13:30:01.672Z,14.90
2017-12-16T13:32:29.774Z,14.70
2017-12-16T13:34:57.037Z,14.03
2017-12-16T13:37:24.396Z,12.20
2017-12-16T13:39:51.660Z,13.80
2017-12-16T13:42:19.008Z,13.83
2017-12-16T13:44:46.274Z,13.80
2017-12-16T13:47:13.555Z,13.70
2017-12-16T13:49:40.816Z,16.33
2017-12-16T13:52:08.087Z,14.90
2017-12-16T13:54:35.349Z,17.40
2017-12-16T13:57:02.633Z,18.67
2017-12-16T13:59:29.892Z,18.23
2017-12-16T14:01:57.175Z,17.37
2017-12-16T14:04:24.437Z,16.80
2017-12-16T14:06:51.752Z,14.23
2017-12-16T14:09:19.012Z,16.27
2017-12-16T14:11:46.268Z,19.50
2017-12-16T14:14:13.550Z,15.80
2017-12-16T14:16:40.808Z,16.57
2017-12-16T14:19:08.089Z,14.93
2017-12-16T14:21:35.355Z,16.27
2017-12-16T14:24:02.632Z,16.50
2017-12-16T14:26:29.894Z,13.53
2017-12-16T14:28:57.172Z,13.70
2017-12-16T14:31:24.559Z,15.07
2017-12-16T14:33:51.836Z,12.50
2017-12-16T14:36:19.092Z,15.20
2017-12-16T14:38:46.369Z,14.83
2017-12-16T14:41:13.628Z,14.37
2017-12-16T14:43:40.909Z,13.00
2017-12-16T14:46:08.171Z,15.53
2017-12-16T14:48:35.449Z,12.90
2017-12-16T14:51:02.719Z,15.80
2017-12-16T14:53:29.980Z,14.00
2017-12-16T14:55:57.257Z,14.97
2017-12-16T14:58:24.513Z,15.30
2017-12-16T15:00:51.796Z,15.43
2017-12-16T15:03:19.061Z,17.87
2017-12-16T15:05:46.384Z,16.10
2017-12-16T15:08:13.648Z,14.90
2017-12-16T15:10:40.924Z,14.40
2017-12-16T15:13:08.188Z,15.07
2017-12-16T15:15:35.460Z,14.60
2017-12-16T15:18:02.724Z,12.90
2017-12-16T15:20:30.044Z,11.17
2017-12-16T15:22:57.309Z,11.40
2017-12-16T15:25:24.565Z,12.20
2017-12-16T15:27:51.845Z,11.47
2017-12-16T15:30:19.096Z,9.53
2017-12-16T15:32:46.368Z,8.80
2017-12-16T15:35:13.641Z,9.00
2017-12-16T15:37:40.917Z,9.97
2017-12-16T15:40:08.201Z,9.70
2017-12-16T15:42:35.483Z,12.70
2017-12-16T15:45:02.739Z,10.27
2017-12-16T15:47:30.016Z,10.60
2017-12-16T15:49:57.280Z,10.00
2017-12-16T15:52:24.561Z,9.87
2017-12-16T15:54:51.919Z,10.03
2017-12-16T15:57:19.284Z,11.60
2017-12-16T15:59:46.545Z,9.87
2017-12-16T16:02:13.796Z,8.83
2017-12-16T16:04:41.070Z,10.10
2017-12-16T16:07:08.331Z,6.47
2017-12-16T16:09:35.605Z,6.33
2017-12-16T16:12:02.853Z,6.17
2017-12-16T16:14:30.126Z,6.73
2017-12-16T16:16:57.389Z,6.53
2017-12-16T16:19:24.758Z,6.27
2017-12-16T16:21:52.013Z,5.90
2017-12-16T16:24:19.288Z,3.40
2017-12-16T16:26:46.617Z,3.70
2017-12-16T16:29:13.936Z,3.60
2017-12-16T16:31:41.134Z,2.40
2017-12-16T16:34:08.410Z,2.17
2017-12-16T16:36:35.711Z,2.17
2017-12-16T16:39:02.957Z,1.87
2017-12-16T16:41:30.224Z,1.73
2017-12-16T16:43:57.472Z,2.50
2017-12-16T16:46:24.736Z,3.07
2017-12-16T16:48:51.988Z,3.60
2017-12-16T16:51:19.254Z,3.77
2017-12-16T16:53:46.508Z,3.87
2017-12-16T16:56:13.769Z,4.57
2017-12-16T16:58:41.029Z,4.20
2017-12-16T17:01:08.289Z,5.00
2017-12-16T17:03:35.552Z,4.87
2017-12-16T17:06:02.819Z,4.50
2017-12-16T17:08:30.069Z,4.80
2017-12-16T17:10:57.369Z,5.17
2017-12-16T17:13:24.636Z,5.13
2017-12-16T17:15:51.893Z,5.10
2017-12-16T17:18:19.165Z,5.50
2017-12-16T17:20:46.416Z,6.43
2017-12-16T17:23:13.692Z,4.93
2017-12-16T17:25:40.944Z,5.37
2017-12-16T17:28:08.273Z,5.90
2017-12-16T17:30:35.520Z,5.23
2017-12-16T17:33:02.796Z,5.27
2017-12-16T17:35:30.054Z,4.90
2017-12-16T17:37:57.377Z,5.37
2017-12-16T17:40:24.623Z,5.60
2017-12-16T17:42:51.929Z,4.97
2017-12-16T17:45:19.186Z,5.00
2017-12-16T17:47:46.453Z,6.80
2017-12-16T17:50:13.750Z,5.60
2017-12-16T17:52:41.020Z,4.90
2017-12-16T17:55:08.268Z,6.00
2017-12-16T17:57:35.542Z,6.00
2017-12-16T18:00:02.788Z,5.73
2017-12-16T18:02:30.121Z,6.20
2017-12-16T18:04:57.373Z,5.60
2017-12-16T18:07:24.620Z,6.00
2017-12-16T18:09:51.884Z,6.50
2017-12-16T18:12:19.145Z,5.60
2017-12-16T18:14:46.412Z,5.57
2017-12-16T18:17:13.739Z,5.53
2017-12-16T18:19:41.017Z,6.87
2017-12-16T18:22:08.269Z,7.67
2017-12-16T18:24:35.541Z,5.33
2017-12-16T18:27:02.850Z,6.40
2017-12-16T18:29:30.121Z,5.80
2017-12-16T18:31:57.368Z,4.43
2017-12-16T18:34:24.644Z,5.17
2017-12-16T18:36:51.888Z,4.63
2017-12-16T18:39:19.208Z,5.87
2017-12-16T18:41:46.459Z,5.37
2017-12-16T18:44:13.724Z,4.80
2017-12-16T18:46:41.080Z,5.00
2017-12-16T18:49:08.333Z,5.83
2017-12-16T18:51:35.608Z,4.90
2017-12-16T18:54:02.912Z,4.50
2017-12-16T18:56:30.188Z,5.47
2017-12-16T18:58:57.456Z,5.73
2017-12-16T19:01:24.715Z,4.83
2017-12-16T19:03:52.059Z,4.47
2017-12-16T19:06:19.338Z,4.80
2017-12-16T19:08:46.588Z,6.83
2017-12-16T19:11:13.907Z,4.97
2017-12-16T19:13:41.117Z,5.00
2017-12-16T19:16:08.382Z,4.87
2017-12-16T19:18:35.628Z,5.17
2017-12-16T19:21:02.891Z,5.53
2017-12-16T19:23:30.133Z,5.50
2017-12-16T19:25:57.407Z,6.37
2017-12-16T19:28:24.697Z,8.03
2017-12-16T19:30:51.965Z,5.70
2017-12-16T19:33:19.305Z,7.63
2017-12-16T19:35:46.570Z,6.60
2017-12-16T19:38:13.852Z,6.70
2017-12-16T19:40:41.100Z,6.30
2017-12-16T19:43:08.421Z,7.10
2017-12-16T19:45:35.677Z,5.93
2017-12-16T19:48:02.945Z,6.70
2017-12-16T19:50:30.200Z,6.20
2017-12-16T19:52:57.465Z,5.93
2017-12-16T19:55:24.725Z,7.27
2017-12-16T19:57:51.994Z,5.60
2017-12-16T20:00:19.248Z,6.47
2017-12-16T20:02:46.523Z,6.30
2017-12-16T20:05:13.772Z,6.50
2017-12-16T20:07:41.040Z,6.50
2017-12-16T20:10:08.288Z,5.83
2017-12-16T20:12:35.556Z,7.40
2017-12-16T20:15:02.821Z,7.03
2017-12-16T20:17:30.136Z,7.13
2017-12-16T20:19:57.384Z,5.87
2017-12-16T20:22:24.641Z,6.63
2017-12-16T20:24:51.928Z,7.30
2017-12-16T20:27:19.164Z,6.87
2017-12-16T20:29:46.437Z,5.93
2017-12-16T20:32:13.693Z,6.37
2017-12-16T20:34:40.965Z,8.10
2017-12-16T20:37:08.221Z,5.77
2017-12-16T20:39:35.491Z,6.30
2017-12-16T20:42:02.736Z,6.73
2017-12-16T20:44:30.237Z,6.60
2017-12-16T20:46:57.604Z,5.83
2017-12-16T20:49:24.875Z,6.03
2017-12-16T20:51:52.128Z,6.70
2017-12-16T20:54:19.416Z,7.40
2017-12-16T20:56:46.676Z,8.13
2017-12-16T20:59:13.921Z,5.50
2017-12-16T21:01:41.263Z,6.07
2017-12-16T21:04:08.601Z,6.50
2017-12-16T21:06:35.873Z,6.63
2017-12-16T21:09:14.243Z,6.73
2017-12-16T21:11:49.067Z,7.20
2017-12-16T21:14:17.803Z,8.23
2017-12-16T21:16:45.068Z,6.83
2017-12-16T21:19:12.319Z,7.27
2017-12-16T21:21:39.651Z,7.87
2017-12-16T21:24:06.906Z,7.27
2017-12-16T21:26:34.173Z,7.13
2017-12-16T21:29:01.434Z,6.93
2017-12-16T21:31:28.719Z,8.37
2017-12-16T21:33:55.981Z,6.93
2017-12-16T21:36:23.248Z,6.80
2017-12-16T21:38:50.837Z,8.20
2017-12-16T21:41:18.104Z,6.90
2017-12-16T21:43:45.440Z,7.27
2017-12-16T21:46:12.715Z,6.10
2017-12-16T21:48:39.963Z,7.07
2017-12-16T21:51:07.214Z,6.47
2017-12-16T21:53:34.480Z,6.93
2017-12-16T21:56:01.814Z,7.20
2017-12-16T21:58:29.080Z,7.37
2017-12-16T22:00:56.339Z,7.60
2017-12-16T22:03:23.615Z,7.00
2017-12-16T22:05:50.934Z,9.03
2017-12-16T22:08:18.285Z,8.33
2017-12-16T22:10:45.540Z,8.13
2017-12-16T22:13:12.812Z,6.40
2017-12-16T22:15:40.073Z,7.70
2017-12-16T22:18:07.345Z,7.70
2017-12-16T22:20:34.649Z,7.50
2017-12-16T22:23:01.929Z,7.17
2017-12-16T22:25:29.280Z,6.77
2017-12-16T22:27:56.524Z,6.60
2017-12-16T22:30:23.803Z,7.00
2017-12-16T22:32:51.049Z,6.53
2017-12-16T22:35:18.329Z,6.40
2017-12-16T22:37:45.586Z,7.30
2017-12-16T22:40:12.848Z,7.00
2017-12-16T22:42:40.137Z,6.57
2017-12-16T22:45:07.414Z,7.10
2017-12-16T22:47:34.755Z,6.20
2017-12-16T22:50:02.032Z,6.60
2017-12-16T22:52:29.359Z,6.13
2017-12-16T22:54:56.714Z,6.00
2017-12-16T22:57:23.964Z,6.90
2017-12-16T22:59:51.240Z,6.47
2017-12-16T23:02:18.489Z,7.07
2017-12-16T23:04:45.783Z,6.23
2017-12-16T23:07:13.033Z,6.53
2017-12-16T23:09:40.275Z,6.40
2017-12-16T23:12:07.536Z,6.33
2017-12-16T23:14:34.788Z,6.07
2017-12-16T23:17:02.056Z,6.40
2017-12-16T23:19:29.311Z,6.00
2017-12-16T23:21:56.581Z,6.40
2017-12-16T23:24:23.824Z,6.57
2017-12-16T23:26:51.089Z,6.07
2017-12-16T23:29:18.339Z,6.83
2017-12-16T23:31:45.616Z,6.13
2017-12-16T23:34:12.852Z,6.30
2017-12-16T23:36:40.119Z,6.30
2017-12-16T23:39:07.373Z,6.73
2017-12-16T23:41:34.624Z,7.23
2017-12-16T23:44:01.906Z,5.90
2017-12-16T23:46:29.149Z,6.23
2017-12-16T23:48:56.421Z,6.90
2017-12-16T23:51:23.750Z,7.70
2017-12-16T23:53:51.096Z,7.03
2017-12-16T23:56:18.343Z,7.13
2017-12-16T23:58:45.609Z,6.20
